Aviation Digital Data Service (ADDS)

Output produced by METARs form (1434 UTC 25 June 2019)
found at http://www.aviationweather.gov/metar/data/
 
METAR text: LGAV 251420Z 02025G35KT 9999 FEW030 30/16 Q1013 NOSIG
Conditions at: LGAV (ATHENS/ELEF-VEN , GR) observed 1420 UTC 25 June 2019
Temperature: 30.0°C (86°F)
Dewpoint: 16.0°C (61°F) [RH = 43%]
Pressure (altimeter): 29.91 inches Hg (1013.0 mb)
Winds: from the NNE (20 degrees) at 29 MPH (25 knots; 12.9 m/s)
gusting to 40 MPH (35 knots; 18.0 m/s)
Visibility: 6 or more miles (10+ km)
Ceiling: at least 12,000 feet AGL
Clouds: few clouds at 3000 feet AGL
Weather: no significant weather observed at this time

METAR text: LGAV 251350Z 03025G40KT 9999 FEW030 31/16 Q1013 NOSIG
Conditions at: LGAV (ATHENS/ELEF-VEN , GR) observed 1350 UTC 25 June 2019
Temperature: 31.0°C (88°F)
Dewpoint: 16.0°C (61°F) [RH = 40%]
Pressure (altimeter): 29.91 inches Hg (1013.0 mb)
Winds: from the NNE (30 degrees) at 29 MPH (25 knots; 12.9 m/s)
gusting to 46 MPH (40 knots; 20.6 m/s)
Visibility: 6 or more miles (10+ km)
Ceiling: at least 12,000 feet AGL
Clouds: few clouds at 3000 feet AGL
Weather: no significant weather observed at this time

METAR text: LGAV 251320Z 03023G34KT 9999 FEW030 31/17 Q1013 NOSIG
Conditions at: LGAV (ATHENS/ELEF-VEN , GR) observed 1320 UTC 25 June 2019
Temperature: 31.0°C (88°F)
Dewpoint: 17.0°C (63°F) [RH = 43%]
Pressure (altimeter): 29.91 inches Hg (1013.0 mb)
Winds: from the NNE (30 degrees) at 26 MPH (23 knots; 11.8 m/s)
gusting to 39 MPH (34 knots; 17.5 m/s)
Visibility: 6 or more miles (10+ km)
Ceiling: at least 12,000 feet AGL
Clouds: few clouds at 3000 feet AGL
Weather: no significant weather observed at this time

METAR text: LGAV 251250Z 02023G36KT 9999 FEW030 31/17 Q1013 NOSIG
Conditions at: LGAV (ATHENS/ELEF-VEN , GR) observed 1250 UTC 25 June 2019
Temperature: 31.0°C (88°F)
Dewpoint: 17.0°C (63°F) [RH = 43%]
Pressure (altimeter): 29.91 inches Hg (1013.0 mb)
Winds: from the NNE (20 degrees) at 26 MPH (23 knots; 11.8 m/s)
gusting to 41 MPH (36 knots; 18.5 m/s)
Visibility: 6 or more miles (10+ km)
Ceiling: at least 12,000 feet AGL
Clouds: few clouds at 3000 feet AGL
Weather: no significant weather observed at this time

METAR text: LGAV 251220Z 02022G33KT 9999 FEW030 31/18 Q1013 NOSIG
Conditions at: LGAV (ATHENS/ELEF-VEN , GR) observed 1220 UTC 25 June 2019
Temperature: 31.0°C (88°F)
Dewpoint: 18.0°C (64°F) [RH = 46%]
Pressure (altimeter): 29.91 inches Hg (1013.0 mb)
Winds: from the NNE (20 degrees) at 25 MPH (22 knots; 11.3 m/s)
gusting to 38 MPH (33 knots; 17.0 m/s)
Visibility: 6 or more miles (10+ km)
Ceiling: at least 12,000 feet AGL
Clouds: few clouds at 3000 feet AGL
Weather: no significant weather observed at this time

METAR text: LGAV 251150Z 02022G32KT 9999 FEW030 31/17 Q1013 NOSIG
Conditions at: LGAV (ATHENS/ELEF-VEN , GR) observed 1150 UTC 25 June 2019
Temperature: 31.0°C (88°F)
Dewpoint: 17.0°C (63°F) [RH = 43%]
Pressure (altimeter): 29.91 inches Hg (1013.0 mb)
Winds: from the NNE (20 degrees) at 25 MPH (22 knots; 11.3 m/s)
gusting to 37 MPH (32 knots; 16.5 m/s)
Visibility: 6 or more miles (10+ km)
Ceiling: at least 12,000 feet AGL
Clouds: few clouds at 3000 feet AGL
Weather: no significant weather observed at this time

METAR text: LGAV 251120Z 01022KT 9999 FEW030 30/17 Q1013 NOSIG
Conditions at: LGAV (ATHENS/ELEF-VEN , GR) observed 1120 UTC 25 June 2019
Temperature: 30.0°C (86°F)
Dewpoint: 17.0°C (63°F) [RH = 46%]
Pressure (altimeter): 29.91 inches Hg (1013.0 mb)
Winds: from the N (10 degrees) at 25 MPH (22 knots; 11.3 m/s)
Visibility: 6 or more miles (10+ km)
Ceiling: at least 12,000 feet AGL
Clouds: few clouds at 3000 feet AGL
Weather: no significant weather observed at this time

METAR text: LGAV 251050Z 01020G31KT 9999 FEW030 30/17 Q1013 NOSIG
Conditions at: LGAV (ATHENS/ELEF-VEN , GR) observed 1050 UTC 25 June 2019
Temperature: 30.0°C (86°F)
Dewpoint: 17.0°C (63°F) [RH = 46%]
Pressure (altimeter): 29.91 inches Hg (1013.0 mb)
Winds: from the N (10 degrees) at 23 MPH (20 knots; 10.3 m/s)
gusting to 36 MPH (31 knots; 15.9 m/s)
Visibility: 6 or more miles (10+ km)
Ceiling: at least 12,000 feet AGL
Clouds: few clouds at 3000 feet AGL
Weather: no significant weather observed at this time

METAR text: LGAV 251020Z 01023KT 9999 FEW030 30/17 Q1013 NOSIG
Conditions at: LGAV (ATHENS/ELEF-VEN , GR) observed 1020 UTC 25 June 2019
Temperature: 30.0°C (86°F)
Dewpoint: 17.0°C (63°F) [RH = 46%]
Pressure (altimeter): 29.91 inches Hg (1013.0 mb)
Winds: from the N (10 degrees) at 26 MPH (23 knots; 11.8 m/s)
Visibility: 6 or more miles (10+ km)
Ceiling: at least 12,000 feet AGL
Clouds: few clouds at 3000 feet AGL
Weather: no significant weather observed at this time

METAR text: LGAV 250950Z 01019G29KT 9999 FEW030 30/17 Q1013 NOSIG
Conditions at: LGAV (ATHENS/ELEF-VEN , GR) observed 0950 UTC 25 June 2019
Temperature: 30.0°C (86°F)
Dewpoint: 17.0°C (63°F) [RH = 46%]
Pressure (altimeter): 29.91 inches Hg (1013.0 mb)
Winds: from the N (10 degrees) at 22 MPH (19 knots; 9.8 m/s)
gusting to 33 MPH (29 knots; 14.9 m/s)
Visibility: 6 or more miles (10+ km)
Ceiling: at least 12,000 feet AGL
Clouds: few clouds at 3000 feet AGL
Weather: no significant weather observed at this time

METAR text: LGAV 250920Z 02020G30KT 9999 FEW030 30/17 Q1013 NOSIG
Conditions at: LGAV (ATHENS/ELEF-VEN , GR) observed 0920 UTC 25 June 2019
Temperature: 30.0°C (86°F)
Dewpoint: 17.0°C (63°F) [RH = 46%]
Pressure (altimeter): 29.91 inches Hg (1013.0 mb)
Winds: from the NNE (20 degrees) at 23 MPH (20 knots; 10.3 m/s)
gusting to 34 MPH (30 knots; 15.4 m/s)
Visibility: 6 or more miles (10+ km)
Ceiling: at least 12,000 feet AGL
Clouds: few clouds at 3000 feet AGL
Weather: no significant weather observed at this time

METAR text: LGAV 250850Z 02022G32KT 340V040 9999 FEW030 29/17 Q1013 NOSIG
Conditions at: LGAV (ATHENS/ELEF-VEN , GR) observed 0850 UTC 25 June 2019
Temperature: 29.0°C (84°F)
Dewpoint: 17.0°C (63°F) [RH = 48%]
Pressure (altimeter): 29.91 inches Hg (1013.0 mb)
Winds: from the NNE (20 degrees) at 25 MPH (22 knots; 11.3 m/s)
gusting to 37 MPH (32 knots; 16.5 m/s)
Visibility: 6 or more miles (10+ km)
Ceiling: at least 12,000 feet AGL
Clouds: few clouds at 3000 feet AGL
Weather: no significant weather observed at this time

METAR text: LGAV 250720Z 02020KT 9999 FEW030 28/17 Q1012 NOSIG
Conditions at: LGAV (ATHENS/ELEF-VEN , GR) observed 0720 UTC 25 June 2019
Temperature: 28.0°C (82°F)
Dewpoint: 17.0°C (63°F) [RH = 51%]
Pressure (altimeter): 29.88 inches Hg (1012.0 mb)
Winds: from the NNE (20 degrees) at 23 MPH (20 knots; 10.3 m/s)
Visibility: 6 or more miles (10+ km)
Ceiling: at least 12,000 feet AGL
Clouds: few clouds at 3000 feet AGL
Weather: no significant weather observed at this time

METAR text: LGAV 250650Z 02022KT CAVOK 28/18 Q1012 NOSIG
Conditions at: LGAV (ATHENS/ELEF-VEN , GR) observed 0650 UTC 25 June 2019
Temperature: 28.0°C (82°F)
Dewpoint: 18.0°C (64°F) [RH = 55%]
Pressure (altimeter): 29.88 inches Hg (1012.0 mb)
Winds: from the NNE (20 degrees) at 25 MPH (22 knots; 11.3 m/s)
Visibility: 6 or more miles (10+ km)
Ceiling: ceiling and visibility are OK
Clouds: unknown
Weather: no significant weather observed at this time

METAR text: LGAV 250620Z 02016KT 9999 FEW030 28/18 Q1012 NOSIG
Conditions at: LGAV (ATHENS/ELEF-VEN , GR) observed 0620 UTC 25 June 2019
Temperature: 28.0°C (82°F)
Dewpoint: 18.0°C (64°F) [RH = 55%]
Pressure (altimeter): 29.88 inches Hg (1012.0 mb)
Winds: from the NNE (20 degrees) at 18 MPH (16 knots; 8.2 m/s)
Visibility: 6 or more miles (10+ km)
Ceiling: at least 12,000 feet AGL
Clouds: few clouds at 3000 feet AGL
Weather: no significant weather observed at this time

METAR text: LGAV 250550Z 02016KT 9999 FEW030 28/18 Q1012 NOSIG
Conditions at: LGAV (ATHENS/ELEF-VEN , GR) observed 0550 UTC 25 June 2019
Temperature: 28.0°C (82°F)
Dewpoint: 18.0°C (64°F) [RH = 55%]
Pressure (altimeter): 29.88 inches Hg (1012.0 mb)
Winds: from the NNE (20 degrees) at 18 MPH (16 knots; 8.2 m/s)
Visibility: 6 or more miles (10+ km)
Ceiling: at least 12,000 feet AGL
Clouds: few clouds at 3000 feet AGL
Weather: no significant weather observed at this time

METAR text: LGAV 250520Z 01014KT 330V050 CAVOK 28/18 Q1012 NOSIG
Conditions at: LGAV (ATHENS/ELEF-VEN , GR) observed 0520 UTC 25 June 2019
Temperature: 28.0°C (82°F)
Dewpoint: 18.0°C (64°F) [RH = 55%]
Pressure (altimeter): 29.88 inches Hg (1012.0 mb)
Winds: from the N (10 degrees) at 16 MPH (14 knots; 7.2 m/s)
Visibility: 6 or more miles (10+ km)
Ceiling: ceiling and visibility are OK
Clouds: unknown
Weather: no significant weather observed at this time

METAR text: LGAV 250450Z 01008KT CAVOK 27/18 Q1012 NOSIG
Conditions at: LGAV (ATHENS/ELEF-VEN , GR) observed 0450 UTC 25 June 2019
Temperature: 27.0°C (81°F)
Dewpoint: 18.0°C (64°F) [RH = 58%]
Pressure (altimeter): 29.88 inches Hg (1012.0 mb)
Winds: from the N (10 degrees) at 9 MPH (8 knots; 4.1 m/s)
Visibility: 6 or more miles (10+ km)
Ceiling: ceiling and visibility are OK
Clouds: unknown
Weather: no significant weather observed at this time

METAR text: LGAV 250420Z VRB03KT CAVOK 27/17 Q1011 NOSIG
Conditions at: LGAV (ATHENS/ELEF-VEN , GR) observed 0420 UTC 25 June 2019
Temperature: 27.0°C (81°F)
Dewpoint: 17.0°C (63°F) [RH = 54%]
Pressure (altimeter): 29.85 inches Hg (1011.0 mb)
Winds: variable direction winds at 3 MPH (3 knots; 1.5 m/s)
Visibility: 6 or more miles (10+ km)
Ceiling: ceiling and visibility are OK
Clouds: unknown
Weather: no significant weather observed at this time

METAR text: LGAV 250350Z 05009KT CAVOK 26/17 Q1011 NOSIG
Conditions at: LGAV (ATHENS/ELEF-VEN , GR) observed 0350 UTC 25 June 2019
Temperature: 26.0°C (79°F)
Dewpoint: 17.0°C (63°F) [RH = 58%]
Pressure (altimeter): 29.85 inches Hg (1011.0 mb)
Winds: from the NE (50 degrees) at 10 MPH (9 knots; 4.6 m/s)
Visibility: 6 or more miles (10+ km)
Ceiling: ceiling and visibility are OK
Clouds: unknown
Weather: no significant weather observed at this time

METAR text: LGAV 250320Z 05004KT CAVOK 25/17 Q1011 NOSIG
Conditions at: LGAV (ATHENS/ELEF-VEN , GR) observed 0320 UTC 25 June 2019
Temperature: 25.0°C (77°F)
Dewpoint: 17.0°C (63°F) [RH = 61%]
Pressure (altimeter): 29.85 inches Hg (1011.0 mb)
Winds: from the NE (50 degrees) at 5 MPH (4 knots; 2.1 m/s)
Visibility: 6 or more miles (10+ km)
Ceiling: ceiling and visibility are OK
Clouds: unknown
Weather: no significant weather observed at this time

METAR text: LGAV 250250Z VRB03KT CAVOK 26/17 Q1011 NOSIG
Conditions at: LGAV (ATHENS/ELEF-VEN , GR) observed 0250 UTC 25 June 2019
Temperature: 26.0°C (79°F)
Dewpoint: 17.0°C (63°F) [RH = 58%]
Pressure (altimeter): 29.85 inches Hg (1011.0 mb)
Winds: variable direction winds at 3 MPH (3 knots; 1.5 m/s)
Visibility: 6 or more miles (10+ km)
Ceiling: ceiling and visibility are OK
Clouds: unknown
Weather: no significant weather observed at this time

METAR text: LGAV 250220Z 09002KT CAVOK 25/17 Q1011 NOSIG
Conditions at: LGAV (ATHENS/ELEF-VEN , GR) observed 0220 UTC 25 June 2019
Temperature: 25.0°C (77°F)
Dewpoint: 17.0°C (63°F) [RH = 61%]
Pressure (altimeter): 29.85 inches Hg (1011.0 mb)
Winds: from the E (90 degrees) at 2 MPH (2 knots; 1.0 m/s)
Visibility: 6 or more miles (10+ km)
Ceiling: ceiling and visibility are OK
Clouds: unknown
Weather: no significant weather observed at this time

METAR text: LGAV 250150Z VRB03KT CAVOK 26/17 Q1011 NOSIG
Conditions at: LGAV (ATHENS/ELEF-VEN , GR) observed 0150 UTC 25 June 2019
Temperature: 26.0°C (79°F)
Dewpoint: 17.0°C (63°F) [RH = 58%]
Pressure (altimeter): 29.85 inches Hg (1011.0 mb)
Winds: variable direction winds at 3 MPH (3 knots; 1.5 m/s)
Visibility: 6 or more miles (10+ km)
Ceiling: ceiling and visibility are OK
Clouds: unknown
Weather: no significant weather observed at this time

METAR text: LGAV 250120Z 34008KT CAVOK 26/17 Q1011 NOSIG
Conditions at: LGAV (ATHENS/ELEF-VEN , GR) observed 0120 UTC 25 June 2019
Temperature: 26.0°C (79°F)
Dewpoint: 17.0°C (63°F) [RH = 58%]
Pressure (altimeter): 29.85 inches Hg (1011.0 mb)
Winds: from the NNW (340 degrees) at 9 MPH (8 knots; 4.1 m/s)
Visibility: 6 or more miles (10+ km)
Ceiling: ceiling and visibility are OK
Clouds: unknown
Weather: no significant weather observed at this time

METAR text: LGAV 250050Z 19003KT CAVOK 23/18 Q1011 NOSIG
Conditions at: LGAV (ATHENS/ELEF-VEN , GR) observed 0050 UTC 25 June 2019
Temperature: 23.0°C (73°F)
Dewpoint: 18.0°C (64°F) [RH = 73%]
Pressure (altimeter): 29.85 inches Hg (1011.0 mb)
Winds: from the S (190 degrees) at 3 MPH (3 knots; 1.5 m/s)
Visibility: 6 or more miles (10+ km)
Ceiling: ceiling and visibility are OK
Clouds: unknown
Weather: no significant weather observed at this time

METAR text: LGAV 250020Z VRB02KT CAVOK 24/18 Q1011 NOSIG
Conditions at: LGAV (ATHENS/ELEF-VEN , GR) observed 0020 UTC 25 June 2019
Temperature: 24.0°C (75°F)
Dewpoint: 18.0°C (64°F) [RH = 69%]
Pressure (altimeter): 29.85 inches Hg (1011.0 mb)
Winds: variable direction winds at 2 MPH (2 knots; 1.0 m/s)
Visibility: 6 or more miles (10+ km)
Ceiling: ceiling and visibility are OK
Clouds: unknown
Weather: no significant weather observed at this time

METAR text: LGAV 242350Z 00000KT CAVOK 23/19 Q1011 NOSIG
Conditions at: LGAV (ATHENS/ELEF-VEN , GR) observed 2350 UTC 24 June 2019
Temperature: 23.0°C (73°F)
Dewpoint: 19.0°C (66°F) [RH = 78%]
Pressure (altimeter): 29.85 inches Hg (1011.0 mb)
Winds: calm
Visibility: 6 or more miles (10+ km)
Ceiling: ceiling and visibility are OK
Clouds: unknown
Weather: no significant weather observed at this time

METAR text: LGAV 242320Z 15002KT CAVOK 24/19 Q1011 NOSIG
Conditions at: LGAV (ATHENS/ELEF-VEN , GR) observed 2320 UTC 24 June 2019
Temperature: 24.0°C (75°F)
Dewpoint: 19.0°C (66°F) [RH = 74%]
Pressure (altimeter): 29.85 inches Hg (1011.0 mb)
Winds: from the SSE (150 degrees) at 2 MPH (2 knots; 1.0 m/s)
Visibility: 6 or more miles (10+ km)
Ceiling: ceiling and visibility are OK
Clouds: unknown
Weather: no significant weather observed at this time

METAR text: LGAV 242250Z 18002KT CAVOK 24/19 Q1011 NOSIG
Conditions at: LGAV (ATHENS/ELEF-VEN , GR) observed 2250 UTC 24 June 2019
Temperature: 24.0°C (75°F)
Dewpoint: 19.0°C (66°F) [RH = 74%]
Pressure (altimeter): 29.85 inches Hg (1011.0 mb)
Winds: from the S (180 degrees) at 2 MPH (2 knots; 1.0 m/s)
Visibility: 6 or more miles (10+ km)
Ceiling: ceiling and visibility are OK
Clouds: unknown
Weather: no significant weather observed at this time

METAR text: LGAV 242220Z 35005KT CAVOK 24/20 Q1011 NOSIG
Conditions at: LGAV (ATHENS/ELEF-VEN , GR) observed 2220 UTC 24 June 2019
Temperature: 24.0°C (75°F)
Dewpoint: 20.0°C (68°F) [RH = 78%]
Pressure (altimeter): 29.85 inches Hg (1011.0 mb)
Winds: from the N (350 degrees) at 6 MPH (5 knots; 2.6 m/s)
Visibility: 6 or more miles (10+ km)
Ceiling: ceiling and visibility are OK
Clouds: unknown
Weather: no significant weather observed at this time

METAR text: LGAV 242150Z 02009KT CAVOK 25/20 Q1011 NOSIG
Conditions at: LGAV (ATHENS/ELEF-VEN , GR) observed 2150 UTC 24 June 2019
Temperature: 25.0°C (77°F)
Dewpoint: 20.0°C (68°F) [RH = 74%]
Pressure (altimeter): 29.85 inches Hg (1011.0 mb)
Winds: from the NNE (20 degrees) at 10 MPH (9 knots; 4.6 m/s)
Visibility: 6 or more miles (10+ km)
Ceiling: ceiling and visibility are OK
Clouds: unknown
Weather: no significant weather observed at this time

METAR text: LGAV 242120Z 04006KT CAVOK 24/20 Q1012 NOSIG
Conditions at: LGAV (ATHENS/ELEF-VEN , GR) observed 2120 UTC 24 June 2019
Temperature: 24.0°C (75°F)
Dewpoint: 20.0°C (68°F) [RH = 78%]
Pressure (altimeter): 29.88 inches Hg (1012.0 mb)
Winds: from the NE (40 degrees) at 7 MPH (6 knots; 3.1 m/s)
Visibility: 6 or more miles (10+ km)
Ceiling: ceiling and visibility are OK
Clouds: unknown
Weather: no significant weather observed at this time

METAR text: LGAV 242050Z 06007KT CAVOK 25/19 Q1012 NOSIG
Conditions at: LGAV (ATHENS/ELEF-VEN , GR) observed 2050 UTC 24 June 2019
Temperature: 25.0°C (77°F)
Dewpoint: 19.0°C (66°F) [RH = 69%]
Pressure (altimeter): 29.88 inches Hg (1012.0 mb)
Winds: from the ENE (60 degrees) at 8 MPH (7 knots; 3.6 m/s)
Visibility: 6 or more miles (10+ km)
Ceiling: ceiling and visibility are OK
Clouds: unknown
Weather: no significant weather observed at this time

METAR text: LGAV 242020Z 06008KT CAVOK 25/20 Q1011 NOSIG
Conditions at: LGAV (ATHENS/ELEF-VEN , GR) observed 2020 UTC 24 June 2019
Temperature: 25.0°C (77°F)
Dewpoint: 20.0°C (68°F) [RH = 74%]
Pressure (altimeter): 29.85 inches Hg (1011.0 mb)
Winds: from the ENE (60 degrees) at 9 MPH (8 knots; 4.1 m/s)
Visibility: 6 or more miles (10+ km)
Ceiling: ceiling and visibility are OK
Clouds: unknown
Weather: no significant weather observed at this time

METAR text: LGAV 241950Z 05009KT CAVOK 25/20 Q1011 NOSIG
Conditions at: LGAV (ATHENS/ELEF-VEN , GR) observed 1950 UTC 24 June 2019
Temperature: 25.0°C (77°F)
Dewpoint: 20.0°C (68°F) [RH = 74%]
Pressure (altimeter): 29.85 inches Hg (1011.0 mb)
Winds: from the NE (50 degrees) at 10 MPH (9 knots; 4.6 m/s)
Visibility: 6 or more miles (10+ km)
Ceiling: ceiling and visibility are OK
Clouds: unknown
Weather: no significant weather observed at this time

METAR text: LGAV 241920Z 01006KT CAVOK 26/20 Q1011 NOSIG
Conditions at: LGAV (ATHENS/ELEF-VEN , GR) observed 1920 UTC 24 June 2019
Temperature: 26.0°C (79°F)
Dewpoint: 20.0°C (68°F) [RH = 70%]
Pressure (altimeter): 29.85 inches Hg (1011.0 mb)
Winds: from the N (10 degrees) at 7 MPH (6 knots; 3.1 m/s)
Visibility: 6 or more miles (10+ km)
Ceiling: ceiling and visibility are OK
Clouds: unknown
Weather: no significant weather observed at this time

METAR text: LGAV 241850Z 36007KT CAVOK 27/20 Q1011 NOSIG
Conditions at: LGAV (ATHENS/ELEF-VEN , GR) observed 1850 UTC 24 June 2019
Temperature: 27.0°C (81°F)
Dewpoint: 20.0°C (68°F) [RH = 66%]
Pressure (altimeter): 29.85 inches Hg (1011.0 mb)
Winds: from the N (360 degrees) at 8 MPH (7 knots; 3.6 m/s)
Visibility: 6 or more miles (10+ km)
Ceiling: ceiling and visibility are OK
Clouds: unknown
Weather: no significant weather observed at this time

METAR text: LGAV 241820Z 01006KT CAVOK 27/19 Q1010 NOSIG
Conditions at: LGAV (ATHENS/ELEF-VEN , GR) observed 1820 UTC 24 June 2019
Temperature: 27.0°C (81°F)
Dewpoint: 19.0°C (66°F) [RH = 62%]
Pressure (altimeter): 29.82 inches Hg (1010.0 mb)
Winds: from the N (10 degrees) at 7 MPH (6 knots; 3.1 m/s)
Visibility: 6 or more miles (10+ km)
Ceiling: ceiling and visibility are OK
Clouds: unknown
Weather: no significant weather observed at this time

METAR text: LGAV 241750Z 02009KT CAVOK 28/19 Q1010 NOSIG
Conditions at: LGAV (ATHENS/ELEF-VEN , GR) observed 1750 UTC 24 June 2019
Temperature: 28.0°C (82°F)
Dewpoint: 19.0°C (66°F) [RH = 58%]
Pressure (altimeter): 29.82 inches Hg (1010.0 mb)
Winds: from the NNE (20 degrees) at 10 MPH (9 knots; 4.6 m/s)
Visibility: 6 or more miles (10+ km)
Ceiling: ceiling and visibility are OK
Clouds: unknown
Weather: no significant weather observed at this time

METAR text: LGAV 241720Z 02010KT CAVOK 29/17 Q1010 NOSIG
Conditions at: LGAV (ATHENS/ELEF-VEN , GR) observed 1720 UTC 24 June 2019
Temperature: 29.0°C (84°F)
Dewpoint: 17.0°C (63°F) [RH = 48%]
Pressure (altimeter): 29.82 inches Hg (1010.0 mb)
Winds: from the NNE (20 degrees) at 12 MPH (10 knots; 5.1 m/s)
Visibility: 6 or more miles (10+ km)
Ceiling: ceiling and visibility are OK
Clouds: unknown
Weather: no significant weather observed at this time

METAR text: LGAV 241650Z 02010KT CAVOK 29/18 Q1010 NOSIG
Conditions at: LGAV (ATHENS/ELEF-VEN , GR) observed 1650 UTC 24 June 2019
Temperature: 29.0°C (84°F)
Dewpoint: 18.0°C (64°F) [RH = 52%]
Pressure (altimeter): 29.82 inches Hg (1010.0 mb)
Winds: from the NNE (20 degrees) at 12 MPH (10 knots; 5.1 m/s)
Visibility: 6 or more miles (10+ km)
Ceiling: ceiling and visibility are OK
Clouds: unknown
Weather: no significant weather observed at this time

METAR text: LGAV 241620Z 02010KT CAVOK 30/18 Q1010 NOSIG
Conditions at: LGAV (ATHENS/ELEF-VEN , GR) observed 1620 UTC 24 June 2019
Temperature: 30.0°C (86°F)
Dewpoint: 18.0°C (64°F) [RH = 49%]
Pressure (altimeter): 29.82 inches Hg (1010.0 mb)
Winds: from the NNE (20 degrees) at 12 MPH (10 knots; 5.1 m/s)
Visibility: 6 or more miles (10+ km)
Ceiling: ceiling and visibility are OK
Clouds: unknown
Weather: no significant weather observed at this time

METAR text: LGAV 241550Z 03010KT CAVOK 31/17 Q1010 NOSIG
Conditions at: LGAV (ATHENS/ELEF-VEN , GR) observed 1550 UTC 24 June 2019
Temperature: 31.0°C (88°F)
Dewpoint: 17.0°C (63°F) [RH = 43%]
Pressure (altimeter): 29.82 inches Hg (1010.0 mb)
Winds: from the NNE (30 degrees) at 12 MPH (10 knots; 5.1 m/s)
Visibility: 6 or more miles (10+ km)
Ceiling: ceiling and visibility are OK
Clouds: unknown
Weather: no significant weather observed at this time

METAR text: LGAV 241520Z 03007KT 350V070 CAVOK 31/18 Q1010 NOSIG
Conditions at: LGAV (ATHENS/ELEF-VEN , GR) observed 1520 UTC 24 June 2019
Temperature: 31.0°C (88°F)
Dewpoint: 18.0°C (64°F) [RH = 46%]
Pressure (altimeter): 29.82 inches Hg (1010.0 mb)
Winds: from the NNE (30 degrees) at 8 MPH (7 knots; 3.6 m/s)
Visibility: 6 or more miles (10+ km)
Ceiling: ceiling and visibility are OK
Clouds: unknown
Weather: no significant weather observed at this time

METAR text: LGAV 241450Z 06007KT 020V080 CAVOK 32/15 Q1010 NOSIG
Conditions at: LGAV (ATHENS/ELEF-VEN , GR) observed 1450 UTC 24 June 2019
Temperature: 32.0°C (90°F)
Dewpoint: 15.0°C (59°F) [RH = 36%]
Pressure (altimeter): 29.82 inches Hg (1010.0 mb)
Winds: from the ENE (60 degrees) at 8 MPH (7 knots; 3.6 m/s)
Visibility: 6 or more miles (10+ km)
Ceiling: ceiling and visibility are OK
Clouds: unknown
Weather: no significant weather observed at this time

METAR text: LGAV 241420Z 10007KT CAVOK 32/15 Q1010 NOSIG
Conditions at: LGAV (ATHENS/ELEF-VEN , GR) observed 1420 UTC 24 June 2019
Temperature: 32.0°C (90°F)
Dewpoint: 15.0°C (59°F) [RH = 36%]
Pressure (altimeter): 29.82 inches Hg (1010.0 mb)
Winds: from the E (100 degrees) at 8 MPH (7 knots; 3.6 m/s)
Visibility: 6 or more miles (10+ km)
Ceiling: ceiling and visibility are OK
Clouds: unknown
Weather: no significant weather observed at this time

METAR text: LGAV 241350Z 08007KT 060V120 9999 FEW030 32/15 Q1010 NOSIG
Conditions at: LGAV (ATHENS/ELEF-VEN , GR) observed 1350 UTC 24 June 2019
Temperature: 32.0°C (90°F)
Dewpoint: 15.0°C (59°F) [RH = 36%]
Pressure (altimeter): 29.82 inches Hg (1010.0 mb)
Winds: from the E (80 degrees) at 8 MPH (7 knots; 3.6 m/s)
Visibility: 6 or more miles (10+ km)
Ceiling: at least 12,000 feet AGL
Clouds: few clouds at 3000 feet AGL
Weather: no significant weather observed at this time

METAR text: LGAV 241320Z 08008KT 9999 FEW030 32/14 Q1010 NOSIG
Conditions at: LGAV (ATHENS/ELEF-VEN , GR) observed 1320 UTC 24 June 2019
Temperature: 32.0°C (90°F)
Dewpoint: 14.0°C (57°F) [RH = 34%]
Pressure (altimeter): 29.82 inches Hg (1010.0 mb)
Winds: from the E (80 degrees) at 9 MPH (8 knots; 4.1 m/s)
Visibility: 6 or more miles (10+ km)
Ceiling: at least 12,000 feet AGL
Clouds: few clouds at 3000 feet AGL
Weather: no significant weather observed at this time

METAR text: LGAV 241250Z 09009KT 9999 FEW030 32/13 Q1010 NOSIG
Conditions at: LGAV (ATHENS/ELEF-VEN , GR) observed 1250 UTC 24 June 2019
Temperature: 32.0°C (90°F)
Dewpoint: 13.0°C (55°F) [RH = 32%]
Pressure (altimeter): 29.82 inches Hg (1010.0 mb)
Winds: from the E (90 degrees) at 10 MPH (9 knots; 4.6 m/s)
Visibility: 6 or more miles (10+ km)
Ceiling: at least 12,000 feet AGL
Clouds: few clouds at 3000 feet AGL
Weather: no significant weather observed at this time

METAR text: LGAV 241220Z 08008KT 9999 FEW030 32/15 Q1010 NOSIG
Conditions at: LGAV (ATHENS/ELEF-VEN , GR) observed 1220 UTC 24 June 2019
Temperature: 32.0°C (90°F)
Dewpoint: 15.0°C (59°F) [RH = 36%]
Pressure (altimeter): 29.82 inches Hg (1010.0 mb)
Winds: from the E (80 degrees) at 9 MPH (8 knots; 4.1 m/s)
Visibility: 6 or more miles (10+ km)
Ceiling: at least 12,000 feet AGL
Clouds: few clouds at 3000 feet AGL
Weather: no significant weather observed at this time

METAR text: LGAV 241150Z 05012KT 9999 FEW030 32/16 Q1010 NOSIG
Conditions at: LGAV (ATHENS/ELEF-VEN , GR) observed 1150 UTC 24 June 2019
Temperature: 32.0°C (90°F)
Dewpoint: 16.0°C (61°F) [RH = 38%]
Pressure (altimeter): 29.82 inches Hg (1010.0 mb)
Winds: from the NE (50 degrees) at 14 MPH (12 knots; 6.2 m/s)
Visibility: 6 or more miles (10+ km)
Ceiling: at least 12,000 feet AGL
Clouds: few clouds at 3000 feet AGL
Weather: no significant weather observed at this time

METAR text: LGAV 241120Z 07011KT 9999 FEW030 32/15 Q1010 NOSIG
Conditions at: LGAV (ATHENS/ELEF-VEN , GR) observed 1120 UTC 24 June 2019
Temperature: 32.0°C (90°F)
Dewpoint: 15.0°C (59°F) [RH = 36%]
Pressure (altimeter): 29.82 inches Hg (1010.0 mb)
Winds: from the ENE (70 degrees) at 13 MPH (11 knots; 5.7 m/s)
Visibility: 6 or more miles (10+ km)
Ceiling: at least 12,000 feet AGL
Clouds: few clouds at 3000 feet AGL
Weather: no significant weather observed at this time

METAR text: LGAV 241050Z 07010KT 9999 FEW030 32/17 Q1011 NOSIG
Conditions at: LGAV (ATHENS/ELEF-VEN , GR) observed 1050 UTC 24 June 2019
Temperature: 32.0°C (90°F)
Dewpoint: 17.0°C (63°F) [RH = 41%]
Pressure (altimeter): 29.85 inches Hg (1011.0 mb)
Winds: from the ENE (70 degrees) at 12 MPH (10 knots; 5.1 m/s)
Visibility: 6 or more miles (10+ km)
Ceiling: at least 12,000 feet AGL
Clouds: few clouds at 3000 feet AGL
Weather: no significant weather observed at this time

METAR text: LGAV 241020Z 05010KT 9999 FEW030 33/14 Q1011 NOSIG
Conditions at: LGAV (ATHENS/ELEF-VEN , GR) observed 1020 UTC 24 June 2019
Temperature: 33.0°C (91°F)
Dewpoint: 14.0°C (57°F) [RH = 32%]
Pressure (altimeter): 29.85 inches Hg (1011.0 mb)
Winds: from the NE (50 degrees) at 12 MPH (10 knots; 5.1 m/s)
Visibility: 6 or more miles (10+ km)
Ceiling: at least 12,000 feet AGL
Clouds: few clouds at 3000 feet AGL
Weather: no significant weather observed at this time

METAR text: LGAV 240950Z 07008KT 030V100 CAVOK 33/14 Q1011 NOSIG
Conditions at: LGAV (ATHENS/ELEF-VEN , GR) observed 0950 UTC 24 June 2019
Temperature: 33.0°C (91°F)
Dewpoint: 14.0°C (57°F) [RH = 32%]
Pressure (altimeter): 29.85 inches Hg (1011.0 mb)
Winds: from the ENE (70 degrees) at 9 MPH (8 knots; 4.1 m/s)
Visibility: 6 or more miles (10+ km)
Ceiling: ceiling and visibility are OK
Clouds: unknown
Weather: no significant weather observed at this time

METAR text: LGAV 240920Z 08007KT CAVOK 32/15 Q1011 NOSIG
Conditions at: LGAV (ATHENS/ELEF-VEN , GR) observed 0920 UTC 24 June 2019
Temperature: 32.0°C (90°F)
Dewpoint: 15.0°C (59°F) [RH = 36%]
Pressure (altimeter): 29.85 inches Hg (1011.0 mb)
Winds: from the E (80 degrees) at 8 MPH (7 knots; 3.6 m/s)
Visibility: 6 or more miles (10+ km)
Ceiling: ceiling and visibility are OK
Clouds: unknown
Weather: no significant weather observed at this time

METAR text: LGAV 240850Z 08008KT 050V110 CAVOK 32/16 Q1011 NOSIG
Conditions at: LGAV (ATHENS/ELEF-VEN , GR) observed 0850 UTC 24 June 2019
Temperature: 32.0°C (90°F)
Dewpoint: 16.0°C (61°F) [RH = 38%]
Pressure (altimeter): 29.85 inches Hg (1011.0 mb)
Winds: from the E (80 degrees) at 9 MPH (8 knots; 4.1 m/s)
Visibility: 6 or more miles (10+ km)
Ceiling: ceiling and visibility are OK
Clouds: unknown
Weather: no significant weather observed at this time

METAR text: LGAV 240820Z 07007KT 030V100 CAVOK 31/18 Q1011 NOSIG
Conditions at: LGAV (ATHENS/ELEF-VEN , GR) observed 0820 UTC 24 June 2019
Temperature: 31.0°C (88°F)
Dewpoint: 18.0°C (64°F) [RH = 46%]
Pressure (altimeter): 29.85 inches Hg (1011.0 mb)
Winds: from the ENE (70 degrees) at 8 MPH (7 knots; 3.6 m/s)
Visibility: 6 or more miles (10+ km)
Ceiling: ceiling and visibility are OK
Clouds: unknown
Weather: no significant weather observed at this time

METAR text: LGAV 240750Z 05005KT 010V090 CAVOK 31/18 Q1011 NOSIG
Conditions at: LGAV (ATHENS/ELEF-VEN , GR) observed 0750 UTC 24 June 2019
Temperature: 31.0°C (88°F)
Dewpoint: 18.0°C (64°F) [RH = 46%]
Pressure (altimeter): 29.85 inches Hg (1011.0 mb)
Winds: from the NE (50 degrees) at 6 MPH (5 knots; 2.6 m/s)
Visibility: 6 or more miles (10+ km)
Ceiling: ceiling and visibility are OK
Clouds: unknown
Weather: no significant weather observed at this time

METAR text: LGAV 240720Z 11005KT 070V140 CAVOK 30/18 Q1011 NOSIG
Conditions at: LGAV (ATHENS/ELEF-VEN , GR) observed 0720 UTC 24 June 2019
Temperature: 30.0°C (86°F)
Dewpoint: 18.0°C (64°F) [RH = 49%]
Pressure (altimeter): 29.85 inches Hg (1011.0 mb)
Winds: from the ESE (110 degrees) at 6 MPH (5 knots; 2.6 m/s)
Visibility: 6 or more miles (10+ km)
Ceiling: ceiling and visibility are OK
Clouds: unknown
Weather: no significant weather observed at this time

METAR text: LGAV 240650Z VRB02KT CAVOK 30/19 Q1011 NOSIG
Conditions at: LGAV (ATHENS/ELEF-VEN , GR) observed 0650 UTC 24 June 2019
Temperature: 30.0°C (86°F)
Dewpoint: 19.0°C (66°F) [RH = 52%]
Pressure (altimeter): 29.85 inches Hg (1011.0 mb)
Winds: variable direction winds at 2 MPH (2 knots; 1.0 m/s)
Visibility: 6 or more miles (10+ km)
Ceiling: ceiling and visibility are OK
Clouds: unknown
Weather: no significant weather observed at this time

METAR text: LGAV 240620Z VRB02KT CAVOK 30/17 Q1011 NOSIG
Conditions at: LGAV (ATHENS/ELEF-VEN , GR) observed 0620 UTC 24 June 2019
Temperature: 30.0°C (86°F)
Dewpoint: 17.0°C (63°F) [RH = 46%]
Pressure (altimeter): 29.85 inches Hg (1011.0 mb)
Winds: variable direction winds at 2 MPH (2 knots; 1.0 m/s)
Visibility: 6 or more miles (10+ km)
Ceiling: ceiling and visibility are OK
Clouds: unknown
Weather: no significant weather observed at this time

METAR text: LGAV 240550Z 00000KT CAVOK 29/17 Q1011 NOSIG
Conditions at: LGAV (ATHENS/ELEF-VEN , GR) observed 0550 UTC 24 June 2019
Temperature: 29.0°C (84°F)
Dewpoint: 17.0°C (63°F) [RH = 48%]
Pressure (altimeter): 29.85 inches Hg (1011.0 mb)
Winds: calm
Visibility: 6 or more miles (10+ km)
Ceiling: ceiling and visibility are OK
Clouds: unknown
Weather: no significant weather observed at this time

METAR text: LGAV 240520Z VRB02KT CAVOK 28/17 Q1011 NOSIG
Conditions at: LGAV (ATHENS/ELEF-VEN , GR) observed 0520 UTC 24 June 2019
Temperature: 28.0°C (82°F)
Dewpoint: 17.0°C (63°F) [RH = 51%]
Pressure (altimeter): 29.85 inches Hg (1011.0 mb)
Winds: variable direction winds at 2 MPH (2 knots; 1.0 m/s)
Visibility: 6 or more miles (10+ km)
Ceiling: ceiling and visibility are OK
Clouds: unknown
Weather: no significant weather observed at this time

METAR text: LGAV 240450Z 19004KT 160V230 CAVOK 27/18 Q1012 NOSIG
Conditions at: LGAV (ATHENS/ELEF-VEN , GR) observed 0450 UTC 24 June 2019
Temperature: 27.0°C (81°F)
Dewpoint: 18.0°C (64°F) [RH = 58%]
Pressure (altimeter): 29.88 inches Hg (1012.0 mb)
Winds: from the S (190 degrees) at 5 MPH (4 knots; 2.1 m/s)
Visibility: 6 or more miles (10+ km)
Ceiling: ceiling and visibility are OK
Clouds: unknown
Weather: no significant weather observed at this time

METAR text: LGAV 240420Z VRB01KT CAVOK 26/17 Q1012 NOSIG
Conditions at: LGAV (ATHENS/ELEF-VEN , GR) observed 0420 UTC 24 June 2019
Temperature: 26.0°C (79°F)
Dewpoint: 17.0°C (63°F) [RH = 58%]
Pressure (altimeter): 29.88 inches Hg (1012.0 mb)
Winds: variable direction winds at 1 MPH (1 knots; 0.5 m/s)
Visibility: 6 or more miles (10+ km)
Ceiling: ceiling and visibility are OK
Clouds: unknown
Weather: no significant weather observed at this time

METAR text: LGAV 240350Z 00000KT CAVOK 25/17 Q1012 NOSIG
Conditions at: LGAV (ATHENS/ELEF-VEN , GR) observed 0350 UTC 24 June 2019
Temperature: 25.0°C (77°F)
Dewpoint: 17.0°C (63°F) [RH = 61%]
Pressure (altimeter): 29.88 inches Hg (1012.0 mb)
Winds: calm
Visibility: 6 or more miles (10+ km)
Ceiling: ceiling and visibility are OK
Clouds: unknown
Weather: no significant weather observed at this time

METAR text: LGAV 240320Z 20004KT 150V280 CAVOK 25/16 Q1012 NOSIG
Conditions at: LGAV (ATHENS/ELEF-VEN , GR) observed 0320 UTC 24 June 2019
Temperature: 25.0°C (77°F)
Dewpoint: 16.0°C (61°F) [RH = 57%]
Pressure (altimeter): 29.88 inches Hg (1012.0 mb)
Winds: from the SSW (200 degrees) at 5 MPH (4 knots; 2.1 m/s)
Visibility: 6 or more miles (10+ km)
Ceiling: ceiling and visibility are OK
Clouds: unknown
Weather: no significant weather observed at this time

METAR text: LGAV 240250Z 25001KT CAVOK 23/16 Q1012 NOSIG
Conditions at: LGAV (ATHENS/ELEF-VEN , GR) observed 0250 UTC 24 June 2019
Temperature: 23.0°C (73°F)
Dewpoint: 16.0°C (61°F) [RH = 65%]
Pressure (altimeter): 29.88 inches Hg (1012.0 mb)
Winds: from the WSW (250 degrees) at 1 MPH (1 knots; 0.5 m/s)
Visibility: 6 or more miles (10+ km)
Ceiling: ceiling and visibility are OK
Clouds: unknown
Weather: no significant weather observed at this time

Forecast for: LGAV (ATHENS/ELEF-VEN , GR)
Text: TAF LGAV 251100Z 2512/2612 01024G34KT 9999 FEW025
Forecast period: 1200 UTC 25 June 2019 to 1200 UTC 26 June 2019
Forecast type: FROM: standard forecast or significant change
Winds: from the N (10 degrees) at 28 MPH (24 knots; 12.3 m/s)
gusting to 39 MPH (34 knots; 17.5 m/s)
Visibility: 6 or more miles 10+ km)
Ceiling: at least 12,000 feet AGL
Clouds: few clouds at 2500 feet AGL
Weather: no significant weather forecast for this period